Time;durP1;ratioP1;P1;durP2;ratioP2;P2;SDS_P1;SDS_P2;PMS_P1;PMS_P2;Temp;Humidity;BMP_temperature;BMP_pressure;BME280_temperature;BME280_humidity;BME280_pressure;Samples;Min_cycle;Max_cycle;Signal;HPM_P1;HPM_P2
2024/01/13 00:01:20;;;;;;;22.90;13.35;;;;;;;-146.27;91.85;42218.09;5091928;28;20038;-74
2024/01/13 00:03:45;;;;;;;19.83;12.05;;;;;;;-146.27;92.17;42186.28;5091563;28;20110;-74
2024/01/13 00:06:11;;;;;;;20.30;11.95;;;;;;;-146.27;91.94;42214.13;5092736;28;20112;-74
2024/01/13 00:08:36;;;;;;;17.65;11.55;;;;;;;-146.27;91.84;42218.09;5112646;28;20161;-74
2024/01/13 00:11:01;;;;;;;20.65;14.38;;;;;;;-146.27;91.77;42218.09;5112928;28;20131;-74
2024/01/13 00:13:27;;;;;;;23.65;14.65;;;;;;;-146.27;91.87;42182.28;5093286;28;20024;-73
2024/01/13 00:15:53;;;;;;;23.63;14.18;;;;;;;-146.27;92.08;42206.16;5092284;28;20476;-73
2024/01/13 00:18:19;;;;;;;27.05;16.88;;;;;;;-146.27;92.37;42208.16;5090467;28;20053;-73
2024/01/13 00:20:44;;;;;;;25.15;16.08;;;;;;;-146.27;92.21;42212.13;5089983;28;20030;-72
2024/01/13 00:23:10;;;;;;;27.60;17.17;;;;;;;-146.27;92.14;42190.25;5092217;28;20455;-73
2024/01/13 00:25:35;;;;;;;30.65;16.77;;;;;;;-146.27;92.18;42154.47;5092066;28;20031;-74
2024/01/13 00:28:01;;;;;;;25.45;16.05;;;;;;;-146.27;92.36;42184.28;5099089;28;20028;-74
2024/01/13 00:30:26;;;;;;;23.48;15.77;;;;;;;-146.27;92.47;42194.22;5091271;28;20028;-72
2024/01/13 00:32:52;;;;;;;24.13;15.38;;;;;;;-146.27;92.31;42180.31;5091235;28;20024;-74
2024/01/13 00:35:17;;;;;;;24.88;16.25;;;;;;;-146.27;92.30;42200.19;5090469;28;20077;-72
2024/01/13 00:37:44;;;;;;;25.15;17.08;;;;;;;-146.27;92.15;42182.28;5090695;28;20020;-74
2024/01/13 00:40:13;;;;;;;27.13;16.98;;;;;;;-146.27;92.13;42170.38;5087028;28;20067;-73
2024/01/13 00:42:40;;;;;;;24.67;16.33;;;;;;;-146.27;92.41;42200.19;5086056;28;20056;-74
2024/01/13 00:45:06;;;;;;;23.52;15.35;;;;;;;-146.27;92.07;42216.09;5092387;28;20027;-73
2024/01/13 00:47:32;;;;;;;25.80;15.70;;;;;;;-146.27;92.12;42210.13;5089461;28;20035;-74
2024/01/13 00:49:57;;;;;;;20.13;14.95;;;;;;;-146.27;92.17;42214.13;5091088;28;20046;-72
2024/01/13 00:52:22;;;;;;;26.52;15.45;;;;;;;-146.27;91.99;42210.13;5091407;28;20133;-73
2024/01/13 00:54:48;;;;;;;22.40;14.90;;;;;;;-146.27;92.33;42196.22;5090806;28;20496;-72
2024/01/13 00:57:13;;;;;;;23.30;15.35;;;;;;;-146.27;92.44;42206.16;5089148;28;20623;-73
2024/01/13 00:59:38;;;;;;;24.48;15.23;;;;;;;-146.27;92.23;42172.34;5089896;28;20543;-74
2024/01/13 01:02:04;;;;;;;22.48;15.68;;;;;;;-146.27;92.18;42192.25;5090040;28;20464;-74
2024/01/13 01:04:29;;;;;;;22.70;15.32;;;;;;;-146.27;92.06;42182.28;5095722;28;20542;-74
2024/01/13 01:06:55;;;;;;;25.48;15.80;;;;;;;-146.27;92.15;42190.25;5096666;28;20035;-74
2024/01/13 01:09:20;;;;;;;23.58;14.48;;;;;;;-146.27;92.07;42182.28;5089212;28;20410;-74
2024/01/13 01:11:45;;;;;;;23.20;14.88;;;;;;;-146.27;92.22;42166.38;5086184;28;20549;-74
2024/01/13 01:14:11;;;;;;;21.73;13.65;;;;;;;-146.27;92.13;42170.38;5076193;28;20107;-73
2024/01/13 01:16:36;;;;;;;20.73;13.45;;;;;;;-146.27;92.23;42178.31;5090752;28;20039;-74
2024/01/13 01:19:02;;;;;;;23.30;14.50;;;;;;;-146.27;92.36;42202.19;5090759;28;20054;-73
2024/01/13 01:21:27;;;;;;;22.90;13.23;;;;;;;-146.27;92.49;42166.38;5089087;28;20023;-73
2024/01/13 01:23:53;;;;;;;25.38;14.20;;;;;;;-146.27;92.55;42178.31;5091614;28;20449;-74
2024/01/13 01:26:18;;;;;;;20.95;13.95;;;;;;;-146.27;92.42;42166.38;5094464;28;20028;-74
2024/01/13 01:28:44;;;;;;;23.13;13.32;;;;;;;-146.27;92.39;42174.34;5087957;28;20019;-74
2024/01/13 01:31:09;;;;;;;20.58;13.25;;;;;;;-146.27;92.46;42160.41;5090436;28;20107;-73
2024/01/13 01:33:34;;;;;;;22.08;13.13;;;;;;;-146.27;92.55;42138.53;5091212;28;20039;-73
2024/01/13 01:36:00;;;;;;;21.67;13.77;;;;;;;-146.27;92.53;42166.38;5103346;28;20031;-73
2024/01/13 01:38:25;;;;;;;21.10;12.98;;;;;;;-146.27;92.52;42168.38;5090931;28;20109;-73
2024/01/13 01:40:54;;;;;;;22.58;13.32;;;;;;;-146.27;92.42;42158.44;5090713;28;20024;-73
2024/01/13 01:43:21;;;;;;;18.73;11.45;;;;;;;-146.27;92.63;42130.59;5080308;28;20362;-73
2024/01/13 01:45:54;;;;;;;18.08;10.98;;;;;;;-146.27;92.36;42166.38;5086253;28;20036;-74
2024/01/13 01:48:37;;;;;;;16.60;10.57;;;;;;;-146.27;92.58;42140.53;5070452;28;20037;-74
2024/01/13 01:51:04;;;;;;;17.05;9.50;;;;;;;-146.27;92.46;42138.53;5069737;28;20103;-72
2024/01/13 01:53:31;;;;;;;15.20;9.68;;;;;;;-146.27;92.51;42148.50;5084584;28;20050;-72
2024/01/13 01:55:59;;;;;;;20.52;9.02;;;;;;;-146.27;92.83;42110.72;5088624;28;20019;-72
2024/01/13 01:58:25;;;;;;;14.63;8.77;;;;;;;-146.27;92.60;42122.63;5086565;28;20554;-74
2024/01/13 02:00:51;;;;;;;12.48;7.47;;;;;;;-146.27;92.80;42098.78;5080105;28;20016;-73
2024/01/13 02:03:16;;;;;;;21.58;8.80;;;;;;;-146.27;92.62;42126.63;5083579;28;20038;-74
2024/01/13 02:05:42;;;;;;;11.55;7.50;;;;;;;-146.27;92.33;42130.59;5088960;28;20468;-73
2024/01/13 02:08:07;;;;;;;16.98;9.00;;;;;;;-146.27;92.32;42140.53;5087237;28;20055;-73
2024/01/13 02:10:33;;;;;;;12.68;7.35;;;;;;;-146.27;92.07;42150.47;5077393;28;20032;-73
2024/01/13 02:12:59;;;;;;;10.88;6.53;;;;;;;-146.27;92.50;42094.81;5085644;28;20101;-73
2024/01/13 02:15:24;;;;;;;10.00;6.20;;;;;;;-146.27;93.25;42118.66;5098675;28;20053;-73
2024/01/13 02:17:49;;;;;;;11.00;5.70;;;;;;;-146.27;93.11;42102.75;5087473;28;20047;-73
2024/01/13 02:20:15;;;;;;;14.02;5.82;;;;;;;-146.27;93.19;42082.88;5077762;28;20035;-73
2024/01/13 02:22:40;;;;;;;5.78;3.85;;;;;;;-146.27;93.09;42102.75;5085729;28;20027;-73
2024/01/13 02:25:07;;;;;;;5.50;3.35;;;;;;;-146.27;92.92;42092.81;5085103;28;20480;-73
2024/01/13 02:27:33;;;;;;;4.68;2.78;;;;;;;-146.27;92.67;42066.97;5089500;28;20434;-73
2024/01/13 02:29:58;;;;;;;5.80;2.50;;;;;;;-146.27;92.76;42055.03;5088905;28;20028;-73
2024/01/13 02:32:24;;;;;;;4.03;2.00;;;;;;;-146.27;92.45;42082.88;5089457;28;20562;-72
2024/01/13 02:34:49;;;;;;;4.90;1.60;;;;;;;-146.27;92.74;42088.84;5088098;28;20028;-73
2024/01/13 02:37:15;;;;;;;2.10;1.50;;;;;;;-146.27;92.65;42074.91;5086540;28;20055;-73
2024/01/13 02:39:40;;;;;;;3.67;1.83;;;;;;;-146.27;92.39;42064.97;5088562;28;20020;-73
2024/01/13 02:42:05;;;;;;;2.78;2.15;;;;;;;-146.27;92.26;42090.81;5086703;28;20051;-73
2024/01/13 02:44:31;;;;;;;4.30;2.67;;;;;;;-146.27;92.01;42092.81;5095038;28;20035;-73
2024/01/13 02:46:57;;;;;;;8.05;1.90;;;;;;;-146.27;91.98;42092.81;5091492;28;20051;-72
2024/01/13 02:49:22;;;;;;;6.10;1.98;;;;;;;-146.27;92.25;42118.66;5076234;28;20377;-73
2024/01/13 02:51:47;;;;;;;2.90;1.58;;;;;;;-146.27;92.20;42104.75;5083613;28;20115;-73
2024/01/13 02:54:13;;;;;;;2.53;1.58;;;;;;;-146.27;92.21;42098.78;5088298;28;20131;-73
2024/01/13 02:56:38;;;;;;;3.50;2.17;;;;;;;-146.27;92.15;42104.75;5080999;28;20361;-73
2024/01/13 02:59:04;;;;;;;5.65;2.78;;;;;;;-146.27;91.96;42132.59;5084450;28;20023;-73
2024/01/13 03:01:32;;;;;;;10.63;6.07;;;;;;;-146.27;92.33;42118.66;5079303;28;20043;-73
2024/01/13 03:03:58;;;;;;;14.40;6.40;;;;;;;-146.27;92.47;42106.72;5090718;28;20443;-73
2024/01/13 03:06:24;;;;;;;10.90;6.80;;;;;;;-146.27;92.17;42114.69;5101045;28;20055;-72
2024/01/13 03:08:50;;;;;;;15.13;9.00;;;;;;;-146.27;92.06;42106.72;5082288;28;20111;-74
2024/01/13 03:11:15;;;;;;;17.80;9.93;;;;;;;-146.27;92.12;42134.56;5090081;28;20119;-74
2024/01/13 03:13:41;;;;;;;18.60;8.00;;;;;;;-146.27;92.17;42118.66;5085909;28;20484;-73
2024/01/13 03:16:06;;;;;;;14.77;9.32;;;;;;;-146.27;92.35;42114.69;5086435;28;20028;-74
2024/01/13 03:18:32;;;;;;;12.30;6.93;;;;;;;-146.27;92.41;42130.59;5091016;28;20032;-73
2024/01/13 03:20:57;;;;;;;13.63;6.68;;;;;;;-146.27;92.42;42122.63;5093466;28;20479;-73
2024/01/13 03:23:22;;;;;;;5.50;2.78;;;;;;;-146.27;92.55;42102.75;5088884;28;20114;-74
2024/01/13 03:25:48;;;;;;;2.03;1.50;;;;;;;-146.27;92.76;42086.84;5093011;28;20035;-73
2024/01/13 03:28:13;;;;;;;4.30;1.35;;;;;;;-146.27;93.05;42064.97;5084686;28;20035;-73
2024/01/13 03:30:39;;;;;;;2.05;1.25;;;;;;;-146.27;93.13;42062.97;5090073;28;20107;-73
2024/01/13 03:33:04;;;;;;;4.88;1.42;;;;;;;-146.27;92.98;42031.16;5092451;28;20085;-73
2024/01/13 03:35:30;;;;;;;1.73;1.13;;;;;;;-146.27;92.71;42027.19;5093452;28;20076;-74
2024/01/13 03:37:55;;;;;;;2.55;1.27;;;;;;;-146.27;92.47;42043.09;5083899;28;20462;-74
2024/01/13 03:40:20;;;;;;;5.22;1.38;;;;;;;-146.27;92.36;42023.22;5084754;28;20111;-73
2024/01/13 03:42:46;;;;;;;3.30;1.30;;;;;;;-146.27;92.42;42051.06;5088580;28;20029;-73
2024/01/13 03:45:12;;;;;;;6.22;1.92;;;;;;;-146.27;92.42;42059.00;5090594;28;20896;-72
2024/01/13 03:47:39;;;;;;;3.78;2.13;;;;;;;-146.27;92.17;42053.03;5091496;28;20032;-73
2024/01/13 03:50:06;;;;;;;11.32;3.63;;;;;;;-146.27;92.88;42064.97;5090557;28;20024;-73
2024/01/13 03:52:31;;;;;;;7.93;3.55;;;;;;;-146.27;92.81;42035.16;5079730;28;20047;-74
2024/01/13 03:54:57;;;;;;;4.63;3.20;;;;;;;-146.27;92.79;42064.97;5091749;28;20040;-74
2024/01/13 03:57:22;;;;;;;8.45;3.42;;;;;;;-146.27;92.62;42035.16;5088712;28;20031;-73
2024/01/13 03:59:48;;;;;;;8.23;2.88;;;;;;;-146.27;92.63;42033.16;5089645;28;20028;-73
2024/01/13 04:02:13;;;;;;;4.38;2.45;;;;;;;-146.27;93.14;42025.19;5088364;28;20154;-73
2024/01/13 04:04:39;;;;;;;4.53;2.38;;;;;;;-146.27;92.76;42003.31;5089467;28;20464;-74
2024/01/13 04:07:04;;;;;;;7.75;2.30;;;;;;;-146.27;92.99;41989.41;5091059;28;20051;-73
2024/01/13 04:09:29;;;;;;;4.25;2.28;;;;;;;-146.27;93.11;42001.34;5088565;28;20400;-73
2024/01/13 04:11:55;;;;;;;6.35;1.88;;;;;;;-146.27;93.20;41991.41;5088930;28;20537;-74
2024/01/13 04:14:20;;;;;;;4.15;1.90;;;;;;;-146.27;93.26;41999.34;5089797;28;20536;-73
2024/01/13 04:16:47;;;;;;;3.70;1.50;;;;;;;-146.27;93.08;42015.25;5089770;28;20016;-73
2024/01/13 04:19:12;;;;;;;7.25;1.52;;;;;;;-146.27;93.37;42019.22;5090085;28;20054;-74
2024/01/13 04:21:38;;;;;;;2.05;1.42;;;;;;;-146.27;93.62;41975.50;5085298;28;20028;-73
2024/01/13 04:24:04;;;;;;;3.47;1.27;;;;;;;-146.27;93.68;42023.22;5077346;28;20099;-73
2024/01/13 04:26:29;;;;;;;4.68;1.20;;;;;;;-146.27;93.14;41973.50;5083040;28;20959;-74
2024/01/13 04:28:55;;;;;;;3.72;1.15;;;;;;;-146.27;93.05;42001.34;5083052;28;20028;-73
2024/01/13 04:31:20;;;;;;;1.98;0.85;;;;;;;-146.27;92.51;41987.41;5088605;28;20028;-73
2024/01/13 04:33:46;;;;;;;2.67;0.88;;;;;;;-146.27;92.56;42011.28;5086798;28;20100;-73
2024/01/13 04:36:11;;;;;;;2.30;1.10;;;;;;;-146.27;92.31;42007.31;5088146;28;20032;-73
2024/01/13 04:38:37;;;;;;;4.25;0.90;;;;;;;-146.27;92.28;42023.22;5087538;28;20020;-73
2024/01/13 04:41:02;;;;;;;6.38;1.10;;;;;;;-146.27;92.73;42015.25;5088914;28;20027;-72
2024/01/13 04:43:28;;;;;;;0.82;0.80;;;;;;;-146.27;92.59;42009.28;5090264;28;20103;-73
2024/01/13 04:45:54;;;;;;;3.72;0.98;;;;;;;-146.27;92.23;42027.19;5082348;28;20383;-73
2024/01/13 04:48:21;;;;;;;2.35;0.90;;;;;;;-146.27;92.29;41999.34;5090431;28;20042;-73
2024/01/13 04:50:47;;;;;;;3.25;1.13;;;;;;;-146.27;92.07;42013.28;5090050;28;20168;-73
2024/01/13 04:53:12;;;;;;;6.10;1.17;;;;;;;-146.27;92.00;41979.47;5079313;28;20146;-73
2024/01/13 04:55:38;;;;;;;4.80;1.15;;;;;;;-146.27;92.21;42007.31;5089806;28;20040;-73
2024/01/13 04:58:03;;;;;;;2.45;1.00;;;;;;;-146.27;91.59;41985.44;5087471;28;20036;-73
2024/01/13 05:00:31;;;;;;;1.95;0.90;;;;;;;-146.27;91.49;41995.38;5077330;28;20028;-74
2024/01/13 05:02:56;;;;;;;1.58;1.08;;;;;;;-146.27;91.27;42049.06;5088285;28;20036;-73
2024/01/13 05:05:21;;;;;;;3.17;0.93;;;;;;;-146.27;91.88;42011.28;5083457;28;20402;-73
2024/01/13 05:07:47;;;;;;;0.90;0.70;;;;;;;-146.27;92.20;42059.00;5085278;28;20024;-75
2024/01/13 05:10:12;;;;;;;2.10;0.88;;;;;;;-146.27;91.87;42023.22;5088113;28;20028;-75
2024/01/13 05:12:37;;;;;;;1.20;0.55;;;;;;;-146.27;91.54;42039.13;5080153;28;20615;-73
2024/01/13 05:15:04;;;;;;;7.75;0.75;;;;;;;-146.27;91.31;42039.13;5090149;28;20024;-74
2024/01/13 05:17:29;;;;;;;0.47;0.30;;;;;;;-146.27;90.93;42094.81;5083791;28;20025;-74
2024/01/13 05:19:54;;;;;;;6.00;0.75;;;;;;;-146.27;90.89;42092.81;5086408;28;20541;-73
2024/01/13 05:22:20;;;;;;;3.75;0.65;;;;;;;-146.27;90.52;42088.84;5088696;28;20031;-73
2024/01/13 05:24:45;;;;;;;5.88;0.77;;;;;;;-146.27;90.45;42112.69;5088770;28;20028;-74
2024/01/13 05:27:11;;;;;;;4.90;0.68;;;;;;;-146.27;89.71;42162.41;5090582;28;20400;-73
2024/01/13 05:29:37;;;;;;;0.75;0.75;;;;;;;-146.27;88.75;42172.34;5070518;28;20109;-73
2024/01/13 05:32:02;;;;;;;2.15;1.05;;;;;;;-146.27;88.18;42190.25;5088210;28;20464;-74
2024/01/13 05:34:28;;;;;;;7.50;1.23;;;;;;;-146.27;87.70;42214.13;5081045;28;20563;-72
2024/01/13 05:36:53;;;;;;;3.83;1.38;;;;;;;-146.27;87.81;42241.97;5078880;28;20019;-72
2024/01/13 05:39:19;;;;;;;4.50;1.38;;;;;;;-146.27;88.35;42245.94;5090954;28;20415;-74
2024/01/13 05:41:44;;;;;;;2.67;1.70;;;;;;;-146.27;87.54;42234.00;5088557;28;20531;-72
2024/01/13 05:44:09;;;;;;;1.80;1.70;;;;;;;-146.27;87.54;42269.78;5089509;28;20047;-74
2024/01/13 05:46:35;;;;;;;4.45;2.70;;;;;;;-146.27;87.51;42259.84;5089371;28;20020;-74
2024/01/13 05:49:03;;;;;;;5.10;1.60;;;;;;;-146.27;87.67;42245.94;5077807;28;20028;-74
2024/01/13 05:51:28;;;;;;;2.92;2.10;;;;;;;-146.27;87.40;42222.06;5071266;28;20116;-75
2024/01/13 05:53:54;;;;;;;8.35;2.65;;;;;;;-146.27;86.20;42279.75;5084450;28;20131;-74
2024/01/13 05:56:20;;;;;;;4.47;1.67;;;;;;;-146.27;86.96;42317.53;5093680;28;20467;-74
2024/01/13 05:58:45;;;;;;;5.30;2.20;;;;;;;-146.27;87.18;42265.81;5084047;28;20039;-74
2024/01/13 06:01:10;;;;;;;4.53;2.25;;;;;;;-146.27;87.82;42313.53;5084977;28;20031;-73
2024/01/13 06:03:36;;;;;;;4.13;2.13;;;;;;;-146.27;87.74;42237.97;5082853;28;20421;-73
2024/01/13 06:06:02;;;;;;;4.43;2.33;;;;;;;-146.27;88.30;42241.97;5078853;28;20023;-73
2024/01/13 06:08:28;;;;;;;8.63;2.20;;;;;;;-146.27;88.05;42245.94;5088211;28;20028;-74
2024/01/13 06:10:53;;;;;;;9.50;2.70;;;;;;;-146.27;87.67;42247.91;5088557;28;20024;-74
2024/01/13 06:13:19;;;;;;;6.22;2.22;;;;;;;-146.27;87.83;42271.78;5088940;28;20644;-73
2024/01/13 06:15:44;;;;;;;3.83;2.13;;;;;;;-146.27;88.18;42241.97;5085326;28;20048;-73
2024/01/13 06:18:09;;;;;;;4.55;2.50;;;;;;;-146.27;88.24;42255.88;5089333;28;20111;-73
2024/01/13 06:20:35;;;;;;;7.20;2.15;;;;;;;-146.27;87.48;42249.91;5085703;28;20541;-74
2024/01/13 06:23:00;;;;;;;5.00;1.75;;;;;;;-146.27;88.28;42285.72;5086970;28;20043;-74
2024/01/13 06:25:25;;;;;;;4.45;2.33;;;;;;;-146.27;88.21;42247.91;5089588;28;20692;-73
2024/01/13 06:27:51;;;;;;;4.20;2.53;;;;;;;-146.27;87.45;42267.81;5084055;28;20024;-74
2024/01/13 06:30:16;;;;;;;7.40;2.10;;;;;;;-146.27;86.76;42301.63;5089693;28;20026;-74
2024/01/13 06:32:42;;;;;;;3.03;2.15;;;;;;;-146.27;88.33;42315.53;5081287;28;20028;-73
2024/01/13 06:35:07;;;;;;;3.90;2.03;;;;;;;-146.27;87.89;42289.69;5080039;28;20028;-72
2024/01/13 06:37:33;;;;;;;6.47;2.42;;;;;;;-146.27;87.78;42303.59;5084519;28;20029;-73
2024/01/13 06:39:58;;;;;;;3.60;2.90;;;;;;;-146.27;86.94;42321.50;5077879;28;20157;-74
2024/01/13 06:42:23;;;;;;;4.43;2.30;;;;;;;-146.27;86.77;42307.56;5098505;28;20059;-74
2024/01/13 06:44:49;;;;;;;6.90;2.88;;;;;;;-146.27;86.68;42357.28;5085725;28;20674;-73
2024/01/13 06:47:15;;;;;;;5.57;3.08;;;;;;;-146.27;87.46;42353.31;5078710;28;20063;-74
2024/01/13 06:49:40;;;;;;;6.60;3.05;;;;;;;-146.27;87.85;42309.56;5092565;28;20387;-74
2024/01/13 06:52:08;;;;;;;5.40;2.95;;;;;;;-146.27;87.83;42313.53;5091438;28;20040;-74
2024/01/13 06:54:34;;;;;;;3.90;2.60;;;;;;;-146.27;86.89;42301.63;5092384;28;20044;-73
2024/01/13 06:57:00;;;;;;;4.40;3.28;;;;;;;-146.27;87.13;42343.38;5096471;28;20031;-74
2024/01/13 06:59:26;;;;;;;5.93;2.88;;;;;;;-146.27;87.29;42309.56;5093333;28;20036;-74
2024/01/13 07:01:52;;;;;;;4.35;3.15;;;;;;;-146.27;87.40;42323.50;5087716;28;20035;-74
2024/01/13 07:04:17;;;;;;;7.05;3.42;;;;;;;-146.27;86.64;42289.69;5093502;28;20109;-76
2024/01/13 07:06:42;;;;;;;4.32;3.50;;;;;;;-146.27;86.97;42343.38;5090865;28;20025;-74
2024/01/13 07:09:08;;;;;;;4.43;3.65;;;;;;;-146.27;87.11;42337.41;5092573;28;20049;-74
2024/01/13 07:11:33;;;;;;;9.05;3.40;;;;;;;-146.27;87.46;42422.94;5092416;28;20023;-74
2024/01/13 07:13:59;;;;;;;6.10;3.65;;;;;;;-146.27;87.05;42345.38;5092290;28;20077;-74
2024/01/13 07:16:24;;;;;;;7.15;3.63;;;;;;;-146.27;86.76;42468.66;5094393;28;20376;-74
2024/01/13 07:18:49;;;;;;;4.15;3.20;;;;;;;-146.27;86.86;42448.78;5092912;28;20400;-74
2024/01/13 07:21:15;;;;;;;4.65;3.35;;;;;;;-146.27;86.21;42456.72;5091465;28;20024;-74
2024/01/13 07:23:44;;;;;;;5.78;3.63;;;;;;;-146.27;85.72;42448.78;5091371;28;20532;-74
2024/01/13 07:26:09;;;;;;;8.45;4.47;;;;;;;-146.27;86.23;42474.63;5086382;28;20424;-74
2024/01/13 07:28:34;;;;;;;9.88;4.78;;;;;;;-146.27;86.48;42468.66;5092012;28;20050;-74
2024/01/13 07:31:00;;;;;;;10.10;4.55;;;;;;;-146.27;85.83;42470.66;5087388;28;20503;-74
2024/01/13 07:33:25;;;;;;;10.23;4.38;;;;;;;-146.27;86.21;42476.63;5086496;28;20067;-74
2024/01/13 07:35:50;;;;;;;13.10;4.90;;;;;;;-146.27;85.31;42538.28;5089848;28;20095;-73
2024/01/13 07:38:16;;;;;;;9.48;5.15;;;;;;;-146.27;85.65;42528.31;5086781;28;20070;-74
2024/01/13 07:40:41;;;;;;;7.55;4.85;;;;;;;-146.27;86.06;42508.44;5083962;28;20052;-75
2024/01/13 07:43:07;;;;;;;9.90;5.20;;;;;;;-146.27;86.47;42520.38;5088899;28;20028;-74
2024/01/13 07:45:32;;;;;;;12.70;5.07;;;;;;;-146.27;86.43;42500.47;5083325;28;20411;-74
2024/01/13 07:47:57;;;;;;;11.48;5.85;;;;;;;-146.27;86.18;42490.53;5088404;28;20024;-74
2024/01/13 07:50:23;;;;;;;8.75;5.28;;;;;;;-146.27;86.75;42534.28;5090355;28;20020;-74
2024/01/13 07:52:48;;;;;;;12.70;6.10;;;;;;;-146.27;85.96;42524.34;5077461;28;20024;-75
2024/01/13 07:55:14;;;;;;;11.82;5.70;;;;;;;-146.27;85.87;42472.66;5085884;28;20044;-74
2024/01/13 07:57:39;;;;;;;13.45;5.47;;;;;;;-146.27;85.84;42518.38;5085373;28;20032;-75
2024/01/13 08:00:05;;;;;;;9.75;5.95;;;;;;;-146.27;86.32;42520.38;5080813;28;20095;-75
2024/01/13 08:02:31;;;;;;;12.10;5.68;;;;;;;-146.27;86.11;42504.47;5092558;28;20499;-75
2024/01/13 08:04:56;;;;;;;9.85;5.65;;;;;;;-146.27;85.59;42528.31;5092636;28;20027;-75
2024/01/13 08:07:25;;;;;;;14.05;6.97;;;;;;;-146.27;85.50;42550.22;5087383;28;20074;-73
2024/01/13 08:09:51;;;;;;;10.57;5.97;;;;;;;-146.27;85.81;42542.25;5112046;28;20066;-75
2024/01/13 08:12:16;;;;;;;12.77;6.63;;;;;;;-146.27;85.64;42524.34;5105348;28;20480;-75
2024/01/13 08:14:41;;;;;;;17.67;6.88;;;;;;;-146.27;85.86;42548.22;5090661;28;20024;-74
2024/01/13 08:17:07;;;;;;;11.85;6.72;;;;;;;-146.27;86.35;42500.47;5091183;28;20472;-75
2024/01/13 08:19:32;;;;;;;16.92;7.15;;;;;;;-146.27;85.50;42518.38;5095758;28;20029;-76
2024/01/13 08:21:58;;;;;;;12.43;7.68;;;;;;;-146.27;86.39;42532.31;5091969;28;20065;-75
2024/01/13 08:24:23;;;;;;;14.52;7.93;;;;;;;-146.27;86.25;42572.09;5089532;28;20016;-75
2024/01/13 08:26:49;;;;;;;14.93;7.47;;;;;;;-146.27;86.04;42524.34;5091300;28;20388;-75
2024/01/13 08:29:14;;;;;;;10.10;7.00;;;;;;;-146.27;86.83;42613.84;5090697;28;20059;-74
2024/01/13 08:31:39;;;;;;;10.63;6.03;;;;;;;-146.27;86.32;42621.81;5092553;28;20543;-75
2024/01/13 08:34:05;;;;;;;9.95;6.47;;;;;;;-146.27;85.86;42631.75;5080967;28;20032;-75
2024/01/13 08:36:30;;;;;;;15.52;6.50;;;;;;;-146.27;84.86;42645.66;5086175;28;20111;-74
2024/01/13 08:38:55;;;;;;;8.35;6.07;;;;;;;-146.27;84.41;42679.47;5088507;28;20024;-74
2024/01/13 08:41:21;;;;;;;8.23;5.72;;;;;;;-146.27;84.62;42753.06;5094418;28;20035;-74
2024/01/13 08:43:48;;;;;;;12.10;6.22;;;;;;;-146.27;84.15;42737.16;5094260;28;20107;-74
2024/01/13 08:46:13;;;;;;;11.68;7.43;;;;;;;-146.27;83.98;42723.22;5083797;28;20058;-74
2024/01/13 08:48:39;;;;;;;10.30;6.50;;;;;;;-146.27;83.83;42778.91;5083835;28;20476;-74
2024/01/13 08:51:05;;;;;;;14.25;8.07;;;;;;;-146.27;84.18;42794.84;5081134;28;20558;-74
2024/01/13 08:53:30;;;;;;;14.68;8.18;;;;;;;-146.27;84.25;42776.94;5081622;28;20396;-73
2024/01/13 08:55:56;;;;;;;14.55;8.27;;;;;;;-146.27;84.45;42824.66;5088375;28;20564;-74
2024/01/13 08:58:21;;;;;;;17.00;9.40;;;;;;;-146.27;84.52;42876.38;5096914;28;20032;-74
2024/01/13 09:00:46;;;;;;;17.25;9.88;;;;;;;-146.27;84.12;42904.22;5087943;28;20063;-75
2024/01/13 09:03:12;;;;;;;18.23;10.30;;;;;;;-146.27;83.56;42940.03;5083971;28;20035;-74
2024/01/13 09:05:37;;;;;;;22.88;9.98;;;;;;;-146.27;83.55;42946.00;5081698;28;20028;-73
2024/01/13 09:08:03;;;;;;;21.85;11.30;;;;;;;-146.27;83.42;42969.84;5078702;28;20024;-74
2024/01/13 09:10:28;;;;;;;19.70;11.77;;;;;;;-146.27;83.42;42938.03;5081202;28;20054;-73
2024/01/13 09:12:54;;;;;;;24.80;12.10;;;;;;;-146.27;82.33;42979.81;5081181;28;20039;-74
2024/01/13 09:15:20;;;;;;;22.77;10.85;;;;;;;-146.27;82.90;43039.47;5083576;28;20028;-74
2024/01/13 09:17:45;;;;;;;21.60;12.05;;;;;;;-146.27;82.77;43041.47;5083491;28;20029;-74
2024/01/13 09:20:11;;;;;;;25.38;14.90;;;;;;;-146.27;82.36;43097.16;5079132;28;20036;-74
2024/01/13 09:22:46;;;;;;;25.33;13.73;;;;;;;-146.27;82.61;43152.84;5090430;27;20415;-74
2024/01/13 09:25:11;;;;;;;24.15;13.23;;;;;;;-146.27;82.27;43150.88;5089477;28;20408;-74
2024/01/13 09:27:36;;;;;;;28.27;14.13;;;;;;;-146.27;82.01;43148.88;5088376;28;20241;-74
2024/01/13 09:30:02;;;;;;;25.58;14.05;;;;;;;-146.27;81.71;43194.63;5094658;28;20020;-73
2024/01/13 09:32:28;;;;;;;29.25;14.50;;;;;;;-146.27;82.14;43190.66;5079163;28;20671;-73
2024/01/13 09:34:54;;;;;;;27.08;13.30;;;;;;;-146.27;82.61;43244.34;5083193;28;20103;-74
2024/01/13 09:37:20;;;;;;;28.80;12.68;;;;;;;-146.27;82.79;43284.13;5083866;28;20108;-74
2024/01/13 09:39:45;;;;;;;23.35;12.23;;;;;;;-146.27;82.79;43268.22;5086782;28;20491;-75
2024/01/13 09:42:27;;;;;;;23.52;13.02;;;;;;;-146.27;82.54;43272.19;5085954;28;20453;-74
2024/01/13 09:44:52;;;;;;;24.65;13.52;;;;;;;-146.27;82.72;43337.84;5073717;28;20198;-74
2024/01/13 09:47:18;;;;;;;26.63;14.55;;;;;;;-146.27;83.33;43315.97;5075807;28;20480;-74
2024/01/13 09:49:45;;;;;;;27.17;13.88;;;;;;;-146.27;82.84;43290.09;5087956;28;20037;-74
2024/01/13 09:52:11;;;;;;;25.77;14.50;;;;;;;-146.27;83.04;43308.00;5080071;28;20074;-74
2024/01/13 09:54:38;;;;;;;29.13;14.27;;;;;;;-146.27;82.65;43331.88;5085313;28;20139;-75
2024/01/13 09:57:04;;;;;;;31.00;15.57;;;;;;;-146.27;83.05;43377.63;5081841;28;20589;-73
2024/01/13 09:59:29;;;;;;;28.45;17.40;;;;;;;-146.27;82.69;43365.69;5080446;28;20028;-75
2024/01/13 10:01:55;;;;;;;32.25;16.50;;;;;;;-146.27;82.21;43409.44;5074940;28;20105;-75
2024/01/13 10:04:21;;;;;;;32.95;18.58;;;;;;;-146.27;82.44;43421.38;5082536;28;20040;-73
2024/01/13 10:06:48;;;;;;;36.42;18.75;;;;;;;-146.27;82.78;43393.53;5079516;28;20028;-73
2024/01/13 10:09:14;;;;;;;37.38;19.15;;;;;;;-146.27;83.31;43399.50;5085509;28;20496;-75
2024/01/13 10:11:40;;;;;;;33.92;18.25;;;;;;;-146.27;82.67;43403.50;5078360;28;20025;-74
2024/01/13 10:14:12;;;;;;;36.00;18.90;;;;;;;-146.27;83.72;43439.28;5082598;28;20071;-74
2024/01/13 10:16:37;;;;;;;38.35;20.25;;;;;;;-146.27;82.91;43351.75;5080555;28;20020;-74
2024/01/13 10:19:08;;;;;;;36.70;20.15;;;;;;;-146.27;82.65;43365.69;5089010;28;20051;-74
2024/01/13 10:21:35;;;;;;;39.83;20.15;;;;;;;-146.27;81.57;43379.63;5084844;28;20037;-74
2024/01/13 10:24:02;;;;;;;40.15;19.73;;;;;;;-146.27;82.30;43391.56;5084368;28;20043;-74
2024/01/13 10:26:29;;;;;;;35.78;20.48;;;;;;;-146.27;82.25;43367.69;5081482;28;20027;-73
2024/01/13 10:28:56;;;;;;;40.83;22.10;;;;;;;-146.27;82.44;43300.06;5084851;28;20031;-74
2024/01/13 10:31:22;;;;;;;40.88;20.95;;;;;;;-146.27;83.19;43313.97;5081173;28;20017;-74
2024/01/13 10:33:48;;;;;;;47.30;23.83;;;;;;;-146.27;82.86;43317.94;5073797;28;20063;-75
2024/01/13 10:36:22;;;;;;;41.25;21.80;;;;;;;-146.27;82.12;43308.00;5071615;28;20103;-75
2024/01/13 10:38:48;;;;;;;42.63;22.15;;;;;;;-146.27;82.94;43355.75;5071477;28;20032;-75
2024/01/13 10:41:13;;;;;;;43.70;22.27;;;;;;;-146.27;82.46;43389.56;5069330;28;20565;-75
2024/01/13 10:43:46;;;;;;;43.97;21.17;;;;;;;-146.27;82.74;43447.25;5061060;28;20059;-75
2024/01/13 10:46:13;;;;;;;44.78;21.63;;;;;;;-146.27;81.46;43413.44;5069151;28;20024;-74
2024/01/13 10:48:45;;;;;;;46.88;23.05;;;;;;;-146.27;80.92;43429.34;5069984;28;20108;-74
2024/01/13 10:51:18;;;;;;;47.22;21.23;;;;;;;-146.27;80.83;43514.88;5067682;28;20099;-74
2024/01/13 10:53:46;;;;;;;41.63;20.50;;;;;;;-146.27;80.63;43443.28;5071491;28;20540;-74
2024/01/13 10:56:14;;;;;;;39.63;19.13;;;;;;;-146.27;80.28;43491.00;5069948;28;20017;-74
2024/01/13 10:58:39;;;;;;;41.40;19.85;;;;;;;-146.27;80.68;43544.72;5070501;28;20143;-74
2024/01/13 11:01:05;;;;;;;39.67;18.35;;;;;;;-146.27;80.83;43522.84;5071030;28;20107;-75
2024/01/13 11:03:34;;;;;;;41.00;17.40;;;;;;;-146.27;80.09;43512.91;5069923;28;20458;-74